createdAt,value
2022-09-07T00:02:09.228Z,25.75
2022-09-07T00:04:35.808Z,25.77
2022-09-07T00:07:02.378Z,25.76
2022-09-07T00:09:28.966Z,25.72
2022-09-07T00:11:55.451Z,25.74
2022-09-07T00:14:21.969Z,25.75
2022-09-07T00:16:48.657Z,25.76
2022-09-07T00:19:15.189Z,25.77
2022-09-07T00:21:41.775Z,25.75
2022-09-07T00:24:08.321Z,25.77
2022-09-07T00:26:35.193Z,25.73
2022-09-07T00:29:03.494Z,25.71
2022-09-07T00:31:31.691Z,25.71
2022-09-07T00:34:00.812Z,25.71
2022-09-07T00:36:27.876Z,25.69
2022-09-07T00:38:54.817Z,25.70
2022-09-07T00:41:22.725Z,25.66
2022-09-07T00:44:19.397Z,25.69
2022-09-07T00:46:46.982Z,25.69
2022-09-07T00:49:18.151Z,25.66
2022-09-07T00:51:54.987Z,25.65
2022-09-07T00:54:30.791Z,25.61
2022-09-07T00:56:57.477Z,25.54
2022-09-07T00:59:28.973Z,25.63
2022-09-07T01:01:56.030Z,25.64
2022-09-07T01:04:23.781Z,25.63
2022-09-07T01:06:50.319Z,25.60
2022-09-07T01:09:22.203Z,25.58
2022-09-07T01:11:51.196Z,25.56
2022-09-07T01:14:24.531Z,25.55
2022-09-07T01:16:50.971Z,25.56
2022-09-07T01:19:55.007Z,25.56
2022-09-07T01:22:58.472Z,25.57
2022-09-07T01:25:35.438Z,25.57
2022-09-07T01:28:11.110Z,25.63
2022-09-07T01:30:42.120Z,25.65
2022-09-07T01:33:30.639Z,25.66
2022-09-07T01:36:16.050Z,25.68
2022-09-07T01:38:54.008Z,25.72
2022-09-07T01:41:43.481Z,25.71
2022-09-07T01:44:18.367Z,25.71
2022-09-07T01:47:02.549Z,25.64
2022-09-07T01:49:44.617Z,25.63
2022-09-07T01:52:19.385Z,25.62
2022-09-07T01:54:52.755Z,25.52
2022-09-07T01:57:32.925Z,25.53
2022-09-07T02:00:09.790Z,25.52
2022-09-07T02:02:53.065Z,25.44
2022-09-07T02:05:29.968Z,25.34
2022-09-07T02:08:19.884Z,25.32
2022-09-07T02:10:55.210Z,25.25
2022-09-07T02:13:42.033Z,25.27
2022-09-07T02:16:24.936Z,25.23
2022-09-07T02:18:56.514Z,25.20
2022-09-07T02:21:38.260Z,25.20
2022-09-07T02:24:10.169Z,25.20
2022-09-07T02:26:39.751Z,25.18
2022-09-07T02:29:07.391Z,25.18
2022-09-07T02:31:34.022Z,25.17
2022-09-07T02:34:02.038Z,25.17
2022-09-07T02:36:35.393Z,25.17
2022-09-07T02:39:02.049Z,25.23
2022-09-07T02:41:41.212Z,25.26
2022-09-07T02:44:15.974Z,25.29
2022-09-07T02:47:26.827Z,25.27
2022-09-07T02:50:18.851Z,25.25
2022-09-07T02:52:58.037Z,25.26
2022-09-07T02:55:36.611Z,25.27
2022-09-07T02:58:03.057Z,25.29
2022-09-07T03:00:35.630Z,25.32
2022-09-07T03:03:45.791Z,25.32
2022-09-07T03:06:22.867Z,25.31
2022-09-07T03:08:54.485Z,25.29
2022-09-07T03:11:22.234Z,25.29
2022-09-07T03:13:48.808Z,25.31
2022-09-07T03:16:15.864Z,25.27
2022-09-07T03:18:43.719Z,25.34
2022-09-07T03:21:10.873Z,25.34
2022-09-07T03:23:37.770Z,25.39
2022-09-07T03:26:04.872Z,25.41
2022-09-07T03:28:31.527Z,25.42
2022-09-07T03:30:58.408Z,25.45
2022-09-07T03:33:25.091Z,25.48
2022-09-07T03:36:00.094Z,25.48
2022-09-07T03:38:26.725Z,25.47
2022-09-07T03:41:03.867Z,25.50
2022-09-07T03:43:31.889Z,25.52
2022-09-07T03:46:00.762Z,25.51
2022-09-07T03:48:30.262Z,25.53
2022-09-07T03:51:10.678Z,25.51
2022-09-07T03:53:39.765Z,25.46
2022-09-07T03:56:12.242Z,25.44
2022-09-07T03:58:39.135Z,25.42
2022-09-07T04:01:18.283Z,25.36
2022-09-07T04:03:45.860Z,25.39
2022-09-07T04:06:12.988Z,25.39
2022-09-07T04:08:40.496Z,25.40
2022-09-07T04:11:09.801Z,25.39
2022-09-07T04:13:36.762Z,25.39
2022-09-07T04:16:23.644Z,25.41
2022-09-07T04:18:51.663Z,25.43
2022-09-07T04:21:18.492Z,25.44
2022-09-07T04:23:45.704Z,25.45
2022-09-07T04:26:20.089Z,25.47
2022-09-07T04:28:47.065Z,25.47
2022-09-07T04:31:15.995Z,25.49
2022-09-07T04:33:43.377Z,25.50
2022-09-07T04:36:10.187Z,25.47
2022-09-07T04:38:37.461Z,25.49
2022-09-07T04:41:08.188Z,25.51
2022-09-07T04:43:35.545Z,25.52
2022-09-07T04:46:07.334Z,25.50
2022-09-07T04:48:34.630Z,25.51
2022-09-07T04:51:09.662Z,25.50
2022-09-07T04:53:38.007Z,25.50
2022-09-07T04:56:05.144Z,25.45
2022-09-07T04:58:32.286Z,25.47
2022-09-07T05:01:03.885Z,25.42
2022-09-07T05:03:32.753Z,25.46
2022-09-07T05:06:06.589Z,25.47
2022-09-07T05:08:44.701Z,25.46
2022-09-07T05:11:12.372Z,25.46
2022-09-07T05:13:39.198Z,25.46
2022-09-07T05:16:15.170Z,25.45
2022-09-07T05:18:42.639Z,25.46
2022-09-07T05:21:18.173Z,25.48
2022-09-07T05:23:44.590Z,25.45
2022-09-07T05:26:12.018Z,25.48
2022-09-07T05:28:39.035Z,25.48
2022-09-07T05:31:18.649Z,25.49
2022-09-07T05:36:38.605Z,25.45
2022-09-07T05:39:06.849Z,25.49
2022-09-07T05:41:33.816Z,25.51
2022-09-07T05:46:46.921Z,25.51
2022-09-07T05:49:13.418Z,25.51
2022-09-07T05:51:40.159Z,25.52
2022-09-07T05:54:06.924Z,25.52
2022-09-07T05:56:36.626Z,25.54
2022-09-07T05:59:03.700Z,25.53
2022-09-07T06:01:30.681Z,25.54
2022-09-07T06:03:57.527Z,25.54
2022-09-07T06:06:24.064Z,25.57
2022-09-07T06:08:53.906Z,25.58
2022-09-07T06:11:22.576Z,25.58
2022-09-07T06:13:49.573Z,25.60
2022-09-07T06:16:17.126Z,25.61
2022-09-07T06:18:46.082Z,25.57
2022-09-07T06:21:15.119Z,25.63
2022-09-07T06:23:43.530Z,25.66
2022-09-07T06:26:12.297Z,25.67
2022-09-07T06:28:49.455Z,25.65
2022-09-07T06:31:19.428Z,25.68
2022-09-07T06:33:50.148Z,25.73
2022-09-07T06:36:19.185Z,25.76
2022-09-07T06:38:46.974Z,25.76
2022-09-07T06:44:02.857Z,25.78
2022-09-07T06:49:15.847Z,25.76
2022-09-07T06:51:42.334Z,25.75
2022-09-07T06:56:56.214Z,25.77
2022-09-07T06:59:22.724Z,25.79
2022-09-07T07:01:49.206Z,25.80
2022-09-07T07:04:15.736Z,25.80
2022-09-07T07:06:42.466Z,25.80
2022-09-07T07:09:12.186Z,25.81
2022-09-07T07:11:38.767Z,25.81
2022-09-07T07:14:05.332Z,25.81
2022-09-07T07:16:32.080Z,25.73
2022-09-07T07:18:58.643Z,25.76
2022-09-07T07:21:25.220Z,25.79
2022-09-07T07:23:53.081Z,25.78
2022-09-07T07:26:22.115Z,25.74
2022-09-07T07:29:06.302Z,25.73
2022-09-07T07:31:33.774Z,25.71
2022-09-07T07:34:26.054Z,25.67
2022-09-07T07:36:52.635Z,25.68
2022-09-07T07:42:06.331Z,25.65
2022-09-07T07:44:32.882Z,25.63
2022-09-07T07:46:59.581Z,25.61
2022-09-07T07:49:26.275Z,25.57
2022-09-07T07:54:43.202Z,25.61
2022-09-07T07:57:10.385Z,25.58
2022-09-07T07:59:36.997Z,25.58
2022-09-07T08:02:05.634Z,25.58
2022-09-07T08:04:33.786Z,25.56
2022-09-07T08:07:00.481Z,25.57
2022-09-07T08:09:27.182Z,25.54
2022-09-07T08:11:53.757Z,25.53
2022-09-07T08:14:20.182Z,25.54
2022-09-07T08:16:46.748Z,25.58
2022-09-07T08:19:13.382Z,25.62
2022-09-07T08:21:39.863Z,25.67
2022-09-07T08:24:06.993Z,25.73
2022-09-07T08:26:33.511Z,25.78
2022-09-07T08:28:59.985Z,25.82
2022-09-07T08:31:27.006Z,25.86
2022-09-07T08:33:53.519Z,25.90
2022-09-07T08:36:21.088Z,25.93
2022-09-07T08:38:48.004Z,25.94
2022-09-07T08:41:38.024Z,26.00
2022-09-07T08:44:11.183Z,26.03
2022-09-07T08:46:43.313Z,26.01
2022-09-07T08:49:21.528Z,26.09
2022-09-07T08:51:56.238Z,26.10
2022-09-07T08:54:22.873Z,26.13
2022-09-07T09:00:03.754Z,26.19
2022-09-07T09:02:33.680Z,26.20
2022-09-07T09:06:11.039Z,26.23
2022-09-07T09:07:57.409Z,26.26
2022-09-07T09:10:42.052Z,26.29
2022-09-07T09:13:23.948Z,26.30
2022-09-07T09:15:59.535Z,26.33
2022-09-07T09:18:38.027Z,26.36
2022-09-07T09:21:07.885Z,26.38
2022-09-07T09:23:39.441Z,26.42
2022-09-07T09:26:12.317Z,26.43
2022-09-07T09:28:39.255Z,26.49
2022-09-07T09:31:06.217Z,26.53
2022-09-07T09:33:32.945Z,26.54
2022-09-07T09:36:01.536Z,26.60
2022-09-07T09:38:36.697Z,26.61
2022-09-07T09:41:08.764Z,26.63
2022-09-07T09:43:44.306Z,26.67
2022-09-07T09:46:31.400Z,26.66
2022-09-07T09:49:00.755Z,26.69
2022-09-07T09:54:25.915Z,26.75
2022-09-07T09:56:52.781Z,26.76
2022-09-07T10:05:37.944Z,26.83
2022-09-07T10:08:16.828Z,26.84
2022-09-07T10:11:04.384Z,26.88
2022-09-07T10:13:35.108Z,26.89
2022-09-07T10:16:07.402Z,26.91
2022-09-07T10:18:35.562Z,26.92
2022-09-07T10:21:14.073Z,26.94
2022-09-07T10:23:41.052Z,26.95
2022-09-07T10:26:25.705Z,26.98
2022-09-07T10:29:36.112Z,26.98
2022-09-07T10:32:08.590Z,27.03
2022-09-07T10:34:59.777Z,27.06
2022-09-07T10:37:35.600Z,27.06
2022-09-07T10:40:23.441Z,27.07
2022-09-07T10:43:29.035Z,27.10
2022-09-07T10:49:10.959Z,27.13
2022-09-07T10:51:56.173Z,27.15
2022-09-07T10:54:50.703Z,27.12
2022-09-07T10:57:32.485Z,27.18
2022-09-07T11:00:18.633Z,27.19
2022-09-07T11:06:08.070Z,27.22
2022-09-07T11:09:17.922Z,27.23
2022-09-07T11:12:01.838Z,27.26
2022-09-07T11:14:36.603Z,27.27
2022-09-07T11:17:13.448Z,27.26
2022-09-07T11:19:54.784Z,27.30
2022-09-07T11:22:30.032Z,27.26
2022-09-07T11:25:32.269Z,27.32
2022-09-07T11:28:09.552Z,27.34
2022-09-07T11:30:51.101Z,27.34
2022-09-07T11:34:23.868Z,27.37
2022-09-07T11:36:41.021Z,27.39
2022-09-07T11:39:16.181Z,27.39
2022-09-07T11:42:01.049Z,27.37
2022-09-07T11:44:45.935Z,27.44
2022-09-07T11:47:22.937Z,27.44
2022-09-07T11:49:58.539Z,27.43
2022-09-07T11:52:40.028Z,27.47
2022-09-07T11:55:14.876Z,27.46
2022-09-07T11:58:07.875Z,27.51
2022-09-07T12:00:50.703Z,27.53
2022-09-07T12:03:32.714Z,27.52
2022-09-07T12:06:14.438Z,27.55
2022-09-07T12:09:14.692Z,27.56
2022-09-07T12:12:10.387Z,27.57
2022-09-07T12:14:51.656Z,27.57
2022-09-07T12:17:36.236Z,27.61
2022-09-07T12:20:15.270Z,27.62
2022-09-07T12:23:17.749Z,27.63
2022-09-07T12:25:46.513Z,27.67
2022-09-07T12:28:24.250Z,27.67
2022-09-07T12:31:00.393Z,27.69
2022-09-07T12:33:46.053Z,27.71
2022-09-07T12:36:38.375Z,27.72
2022-09-07T12:39:26.123Z,27.74
2022-09-07T12:45:30.123Z,27.76
2022-09-07T12:47:59.123Z,27.75
2022-09-07T12:50:29.777Z,27.78
2022-09-07T12:53:14.277Z,27.81
2022-09-07T12:58:48.969Z,27.84
2022-09-07T13:01:24.467Z,27.87
2022-09-07T13:04:12.661Z,27.87
2022-09-07T13:07:03.346Z,27.87
2022-09-07T13:09:35.413Z,27.91
2022-09-07T13:15:09.652Z,27.94
2022-09-07T13:17:43.222Z,27.95
2022-09-07T13:20:09.780Z,27.96
2022-09-07T13:22:36.368Z,28.00
2022-09-07T13:25:23.831Z,28.02
2022-09-07T13:27:57.722Z,28.02
2022-09-07T13:30:56.789Z,28.05
2022-09-07T13:33:26.984Z,28.06
2022-09-07T13:36:05.341Z,28.03
2022-09-07T13:38:36.569Z,28.10
2022-09-07T13:41:18.625Z,28.11
2022-09-07T13:43:50.186Z,28.14
2022-09-07T13:46:51.960Z,28.15
2022-09-07T13:49:32.929Z,28.14
2022-09-07T13:52:06.867Z,28.17
2022-09-07T13:54:49.535Z,28.19
2022-09-07T13:57:28.211Z,28.21
2022-09-07T13:59:55.769Z,28.22
2022-09-07T14:02:34.978Z,28.23
2022-09-07T14:05:02.885Z,28.22
2022-09-07T14:07:31.065Z,28.27
2022-09-07T14:10:09.727Z,28.30
2022-09-07T14:13:06.729Z,28.31
2022-09-07T14:15:40.734Z,28.32
2022-09-07T14:18:29.724Z,28.34
2022-09-07T14:20:57.373Z,28.36
2022-09-07T14:23:29.751Z,28.37
2022-09-07T14:26:19.771Z,28.39
2022-09-07T14:28:48.875Z,28.41
2022-09-07T14:31:18.186Z,28.41
2022-09-07T14:33:52.556Z,28.44
2022-09-07T14:36:43.567Z,28.43
2022-09-07T14:39:11.854Z,28.45
2022-09-07T14:41:40.661Z,28.47
2022-09-07T14:44:26.127Z,28.48
2022-09-07T14:46:56.514Z,28.50
2022-09-07T14:49:24.598Z,28.53
2022-09-07T14:51:52.763Z,28.52
2022-09-07T14:54:22.430Z,28.49
2022-09-07T14:57:03.474Z,28.50
2022-09-07T14:59:47.723Z,28.49
2022-09-07T15:02:26.340Z,28.47
2022-09-07T15:05:15.487Z,28.46
2022-09-07T15:07:47.678Z,28.46
2022-09-07T15:10:23.552Z,28.45
2022-09-07T15:13:01.659Z,28.43
2022-09-07T15:15:34.178Z,28.44
2022-09-07T15:18:08.189Z,28.43
2022-09-07T15:20:40.922Z,28.42
2022-09-07T15:23:14.178Z,28.38
2022-09-07T15:25:45.371Z,28.40
2022-09-07T15:34:09.774Z,28.33
2022-09-07T15:36:42.536Z,28.29
2022-09-07T15:39:21.102Z,28.32
2022-09-07T15:41:48.277Z,28.32
2022-09-07T15:44:15.161Z,28.34
2022-09-07T15:47:41.943Z,28.33
2022-09-07T15:49:29.652Z,28.31
2022-09-07T15:52:05.101Z,28.31
2022-09-07T15:54:35.038Z,28.31
2022-09-07T15:59:49.713Z,28.31
2022-09-07T16:10:27.349Z,28.25
2022-09-07T16:13:02.338Z,28.21
2022-09-07T16:15:29.970Z,28.22
2022-09-07T16:17:56.509Z,28.23
2022-09-07T16:20:23.176Z,28.24
2022-09-07T16:25:36.552Z,28.23
2022-09-07T16:28:05.694Z,28.23
2022-09-07T16:30:32.268Z,28.26
2022-09-07T16:32:59.018Z,28.23
2022-09-07T16:35:25.601Z,28.22
2022-09-07T16:40:41.802Z,28.24
2022-09-07T16:43:09.792Z,28.22
2022-09-07T16:48:23.063Z,28.19
2022-09-07T16:50:58.938Z,28.21
2022-09-07T16:53:34.324Z,28.22
2022-09-07T16:56:16.667Z,28.22
2022-09-07T16:58:45.819Z,28.21
2022-09-07T17:01:15.121Z,28.17
2022-09-07T17:03:42.737Z,28.18
2022-09-07T17:06:11.671Z,28.15
2022-09-07T17:08:39.487Z,28.17
2022-09-07T17:11:08.953Z,28.14
2022-09-07T17:13:37.322Z,28.15
2022-09-07T17:16:09.966Z,28.13
2022-09-07T17:21:24.509Z,28.11
2022-09-07T17:23:55.529Z,28.11
2022-09-07T17:26:26.928Z,28.08
2022-09-07T17:28:56.625Z,28.06
2022-09-07T17:34:19.446Z,28.02
2022-09-07T17:36:46.079Z,28.02
2022-09-07T17:39:14.992Z,28.00
2022-09-07T17:41:43.303Z,28.00
2022-09-07T17:44:09.826Z,28.01
2022-09-07T17:46:36.297Z,28.00
2022-09-07T17:49:03.586Z,27.99
2022-09-07T17:51:32.289Z,27.95
2022-09-07T17:54:03.551Z,27.93
2022-09-07T17:56:31.934Z,27.92
2022-09-07T18:01:46.460Z,27.90
2022-09-07T18:04:14.418Z,27.88
2022-09-07T18:06:41.345Z,27.90
2022-09-07T18:09:07.853Z,27.87
2022-09-07T18:11:50.485Z,27.83
2022-09-07T18:14:18.059Z,27.81
2022-09-07T18:16:46.915Z,27.80
2022-09-07T18:19:14.045Z,27.75
2022-09-07T18:21:42.989Z,27.76
2022-09-07T18:24:17.050Z,27.74
2022-09-07T18:26:49.588Z,27.71
2022-09-07T18:29:28.280Z,27.66
2022-09-07T18:31:57.087Z,27.63
2022-09-07T18:34:23.703Z,27.61
2022-09-07T18:36:50.388Z,27.58
2022-09-07T18:39:17.140Z,27.56
2022-09-07T18:41:43.599Z,27.56
2022-09-07T18:46:56.734Z,27.48
2022-09-07T18:49:23.584Z,27.48
2022-09-07T18:54:37.958Z,27.42
2022-09-07T18:57:04.477Z,27.40
2022-09-07T18:59:30.950Z,27.37
2022-09-07T19:02:02.928Z,27.32
2022-09-07T19:07:18.021Z,27.26
2022-09-07T19:09:46.612Z,27.23
2022-09-07T19:12:13.131Z,27.17
2022-09-07T19:14:39.592Z,27.18
2022-09-07T19:17:06.354Z,27.12
2022-09-07T19:19:34.262Z,27.05
2022-09-07T19:22:02.387Z,27.09
2022-09-07T19:24:29.652Z,27.08
2022-09-07T19:27:00.221Z,27.02
2022-09-07T19:29:27.360Z,27.02
2022-09-07T19:32:11.769Z,27.01
2022-09-07T19:34:42.861Z,26.95
2022-09-07T19:37:11.341Z,26.95
2022-09-07T19:39:38.313Z,26.92
2022-09-07T19:42:05.585Z,26.92
2022-09-07T19:44:32.649Z,26.93
2022-09-07T19:47:00.343Z,26.97
2022-09-07T19:49:27.693Z,26.99
2022-09-07T19:51:54.322Z,27.03
2022-09-07T19:54:21.022Z,27.05
2022-09-07T19:56:47.883Z,27.06
2022-09-07T19:59:14.646Z,27.06
2022-09-07T20:01:46.206Z,27.08
2022-09-07T20:04:19.609Z,27.06
2022-09-07T20:06:48.084Z,27.03
2022-09-07T20:09:14.684Z,27.04
2022-09-07T20:11:46.043Z,27.06
2022-09-07T20:14:13.860Z,27.05
2022-09-07T20:16:41.582Z,27.02
2022-09-07T20:19:08.466Z,26.94
2022-09-07T20:21:36.918Z,26.87
2022-09-07T20:24:04.388Z,26.80
2022-09-07T20:26:32.282Z,26.79
2022-09-07T20:29:23.302Z,26.75
2022-09-07T20:31:46.297Z,26.76
2022-09-07T20:34:13.009Z,26.81
2022-09-07T20:36:40.046Z,26.82
2022-09-07T20:39:06.585Z,26.82
2022-09-07T20:41:34.303Z,26.79
2022-09-07T20:44:02.774Z,26.82
2022-09-07T20:46:30.417Z,26.84
2022-09-07T20:48:57.166Z,26.85
2022-09-07T20:51:23.796Z,26.84
2022-09-07T20:53:50.424Z,26.82
2022-09-07T20:56:25.524Z,26.80
2022-09-07T20:58:57.429Z,26.73
2022-09-07T21:01:24.201Z,26.68
2022-09-07T21:03:53.405Z,26.66
2022-09-07T21:06:21.978Z,26.62
2022-09-07T21:08:49.373Z,26.59
2022-09-07T21:11:21.704Z,26.60
2022-09-07T21:13:55.023Z,26.60
2022-09-07T21:16:21.547Z,26.61
2022-09-07T21:18:53.205Z,26.63
2022-09-07T21:21:20.734Z,26.65
2022-09-07T21:23:47.905Z,26.67
2022-09-07T21:26:15.050Z,26.66
2022-09-07T21:28:41.603Z,26.69
2022-09-07T21:31:09.566Z,26.70
2022-09-07T21:33:37.537Z,26.69
2022-09-07T21:36:09.663Z,26.67
2022-09-07T21:38:37.904Z,26.62
2022-09-07T21:41:13.185Z,26.63
2022-09-07T21:43:40.235Z,26.63
2022-09-07T21:46:18.470Z,26.63
2022-09-07T21:48:46.011Z,26.65
2022-09-07T21:51:16.203Z,26.65
2022-09-07T21:53:43.628Z,26.67
2022-09-07T21:56:12.579Z,26.66
2022-09-07T21:58:39.949Z,26.64
2022-09-07T22:01:16.798Z,26.62
2022-09-07T22:03:48.315Z,26.67
2022-09-07T22:06:15.350Z,26.64
2022-09-07T22:08:42.661Z,26.69
2022-09-07T22:11:15.327Z,26.69
2022-09-07T22:13:42.625Z,26.70
2022-09-07T22:16:09.482Z,26.69
2022-09-07T22:18:37.960Z,26.70
2022-09-07T22:21:07.557Z,26.65
2022-09-07T22:23:35.455Z,26.69
2022-09-07T22:26:01.952Z,26.69
2022-09-07T22:28:29.995Z,26.67
2022-09-07T22:30:57.180Z,26.68
2022-09-07T22:33:23.848Z,26.64
2022-09-07T22:35:50.611Z,26.67
2022-09-07T22:38:17.061Z,26.65
2022-09-07T22:40:43.507Z,26.62
2022-09-07T22:43:09.966Z,26.63
2022-09-07T22:45:36.452Z,26.62
2022-09-07T22:48:03.189Z,26.61
2022-09-07T22:50:29.633Z,26.61
2022-09-07T22:52:56.098Z,26.58
2022-09-07T22:55:22.568Z,26.57
2022-09-07T22:57:49.069Z,26.58
2022-09-07T23:00:15.829Z,26.59
2022-09-07T23:02:42.313Z,26.57
2022-09-07T23:05:09.485Z,26.57
2022-09-07T23:07:36.028Z,26.53
2022-09-07T23:10:02.497Z,26.49
2022-09-07T23:12:28.969Z,26.49
2022-09-07T23:14:55.435Z,26.52
2022-09-07T23:17:21.887Z,26.53
2022-09-07T23:19:48.360Z,26.52
2022-09-07T23:22:15.572Z,26.55
2022-09-07T23:24:42.063Z,26.55
2022-09-07T23:27:08.519Z,26.56
2022-09-07T23:29:34.962Z,26.55
2022-09-07T23:32:01.473Z,26.54
2022-09-07T23:34:28.050Z,26.51
2022-09-07T23:36:54.513Z,26.51
2022-09-07T23:39:21.249Z,26.51
2022-09-07T23:41:47.806Z,26.51
2022-09-07T23:44:14.324Z,26.48
2022-09-07T23:46:40.909Z,26.50
2022-09-07T23:49:07.434Z,26.50
2022-09-07T23:51:34.010Z,26.52
2022-09-07T23:54:00.864Z,26.50
2022-09-07T23:56:27.349Z,26.47
2022-09-07T23:58:53.846Z,26.42
